Time;durP1;ratioP1;P1;durP2;ratioP2;P2;SDS_P1;SDS_P2;PMS_P1;PMS_P2;Temp;Humidity;BMP_temperature;BMP_pressure;BME280_temperature;BME280_humidity;BME280_pressure;Samples;Min_cycle;Max_cycle;Signal;HPM_P1;HPM_P2
2022/11/27 00:01:59;;;;;;;11.30;2.20;;;10.20;99.90;;;;;;5030278;28;20096;-59
2022/11/27 00:04:25;;;;;;;8.77;2.53;;;10.20;99.90;;;;;;5030416;28;20128;-59
2022/11/27 00:06:51;;;;;;;10.95;1.95;;;10.20;99.90;;;;;;5030364;28;20342;-60
2022/11/27 00:09:16;;;;;;;12.85;2.00;;;10.10;99.90;;;;;;5030290;28;20072;-60
2022/11/27 00:11:43;;;;;;;12.20;1.95;;;10.00;99.90;;;;;;5030255;28;20049;-61
2022/11/27 00:14:16;;;;;;;11.20;1.85;;;9.90;99.90;;;;;;5030184;28;20076;-60
2022/11/27 00:16:42;;;;;;;8.38;1.70;;;9.80;99.90;;;;;;5030354;28;20017;-60
2022/11/27 00:19:09;;;;;;;13.52;2.65;;;9.70;99.90;;;;;;5030357;28;20528;-60
2022/11/27 00:21:36;;;;;;;12.10;1.80;;;9.70;99.90;;;;;;5031634;28;20072;-60
2022/11/27 00:24:04;;;;;;;16.85;1.85;;;9.60;99.90;;;;;;5030208;28;20083;-60
2022/11/27 00:26:31;;;;;;;13.25;2.05;;;9.60;99.90;;;;;;5029058;28;20057;-60
2022/11/27 00:28:57;;;;;;;10.82;2.40;;;9.60;99.90;;;;;;5029764;28;20034;-60
2022/11/27 00:31:27;;;;;;;11.15;2.33;;;9.70;99.90;;;;;;5030134;28;20022;-59
2022/11/27 00:33:54;;;;;;;15.57;2.58;;;9.70;99.90;;;;;;5030318;28;20038;-59
2022/11/27 00:36:20;;;;;;;16.52;2.72;;;9.80;99.90;;;;;;5031614;28;20541;-60
2022/11/27 00:38:46;;;;;;;17.52;2.88;;;9.80;99.90;;;;;;5034342;28;20124;-59
2022/11/27 00:41:15;;;;;;;20.45;3.90;;;9.90;99.90;;;;;;5033943;28;20018;-59
2022/11/27 00:43:41;;;;;;;18.95;3.42;;;10.00;99.90;;;;;;5033849;28;20024;-59
2022/11/27 00:46:07;;;;;;;21.25;4.15;;;10.00;99.90;;;;;;5034103;28;20042;-59
2022/11/27 00:48:33;;;;;;;24.02;3.28;;;10.10;99.90;;;;;;5034238;28;20021;-61
2022/11/27 00:51:06;;;;;;;18.25;3.50;;;10.20;99.90;;;;;;5033992;28;20029;-60
2022/11/27 00:53:33;;;;;;;22.38;4.45;;;10.20;99.90;;;;;;5033799;28;20029;-60
2022/11/27 00:55:59;;;;;;;26.60;3.28;;;10.20;99.90;;;;;;5033723;28;20057;-61
2022/11/27 00:58:25;;;;;;;16.90;3.60;;;10.10;99.90;;;;;;5033455;28;20026;-59
2022/11/27 01:01:00;;;;;;;19.45;3.30;;;10.20;99.90;;;;;;5034355;28;20116;-60
2022/11/27 01:03:27;;;;;;;22.70;3.70;;;10.20;99.90;;;;;;5033760;28;20069;-59
2022/11/27 01:05:53;;;;;;;30.83;4.78;;;10.20;99.90;;;;;;5033836;28;20392;-60
2022/11/27 01:08:19;;;;;;;21.63;4.13;;;10.20;99.90;;;;;;5033991;28;20100;-60
2022/11/27 01:10:53;;;;;;;20.20;3.28;;;10.20;99.90;;;;;;5033692;28;20076;-62
2022/11/27 01:13:22;;;;;;;20.80;3.45;;;10.20;99.90;;;;;;5033721;28;20021;-59
2022/11/27 01:15:57;;;;;;;18.42;3.58;;;10.30;99.90;;;;;;5033792;28;20059;-59
2022/11/27 01:18:23;;;;;;;24.02;4.25;;;10.30;99.90;;;;;;5033699;28;20026;-60
2022/11/27 01:20:52;;;;;;;21.98;4.65;;;10.30;99.90;;;;;;5033458;28;20443;-61
2022/11/27 01:23:18;;;;;;;23.40;4.63;;;10.30;99.90;;;;;;5033540;28;20037;-59
2022/11/27 01:25:43;;;;;;;16.10;3.15;;;10.40;99.90;;;;;;5033505;28;20413;-60
2022/11/27 01:28:09;;;;;;;20.58;3.72;;;10.40;99.90;;;;;;5032897;28;20052;-60
2022/11/27 01:30:37;;;;;;;22.38;3.88;;;10.40;99.90;;;;;;5033033;28;20025;-59
2022/11/27 01:33:03;;;;;;;19.08;3.53;;;10.40;99.90;;;;;;5019874;28;20051;-59
2022/11/27 01:35:28;;;;;;;18.52;3.80;;;10.40;99.90;;;;;;5033305;28;20046;-61
2022/11/27 01:37:54;;;;;;;16.80;3.20;;;10.40;99.90;;;;;;5033325;28;20025;-60
2022/11/27 01:40:20;;;;;;;23.45;3.58;;;10.40;99.90;;;;;;5033250;28;20029;-60
2022/11/27 01:42:46;;;;;;;22.95;4.18;;;10.40;99.90;;;;;;5033264;28;20064;-60
2022/11/27 01:45:15;;;;;;;23.38;3.83;;;10.50;99.90;;;;;;5032848;28;20021;-61
2022/11/27 01:47:48;;;;;;;18.95;3.10;;;10.50;99.90;;;;;;5032417;28;20053;-61
2022/11/27 01:50:21;;;;;;;16.55;3.65;;;10.60;99.90;;;;;;5031751;28;20496;-59
2022/11/27 01:52:52;;;;;;;24.50;4.78;;;10.50;99.90;;;;;;5033220;28;20070;-60
2022/11/27 01:55:27;;;;;;;19.58;3.38;;;10.60;99.90;;;;;;5032797;28;20065;-59
2022/11/27 01:57:58;;;;;;;23.77;3.55;;;10.60;99.90;;;;;;5033231;28;20025;-61
2022/11/27 02:00:24;;;;;;;19.25;3.22;;;10.60;99.90;;;;;;5032613;28;20025;-60
2022/11/27 02:02:50;;;;;;;16.42;3.88;;;10.60;99.90;;;;;;5031265;28;20451;-60
2022/11/27 02:05:20;;;;;;;22.08;3.75;;;10.70;99.90;;;;;;5033129;28;20097;-60
2022/11/27 02:07:46;;;;;;;21.63;4.18;;;10.70;99.90;;;;;;5032669;28;20029;-61
2022/11/27 02:10:13;;;;;;;22.52;3.50;;;10.70;99.90;;;;;;5032815;28;20022;-61
2022/11/27 02:12:42;;;;;;;14.13;3.40;;;10.70;99.90;;;;;;5032703;28;20036;-61
2022/11/27 02:15:12;;;;;;;;;;;10.70;99.90;;;;;;5032964;28;20108;-61
2022/11/27 02:17:44;;;;;;;19.13;3.63;;;10.70;99.90;;;;;;5032608;28;19917;-62
2022/11/27 02:20:12;;;;;;;13.88;3.35;;;10.70;99.90;;;;;;5032493;28;20068;-61
2022/11/27 02:23:00;;;;;;;18.83;3.55;;;10.80;99.90;;;;;;5032680;28;20047;-63
2022/11/27 02:25:45;;;;;;;19.05;3.00;;;10.80;99.90;;;;;;5031811;28;20029;-62
2022/11/27 02:28:30;;;;;;;16.20;3.38;;;10.80;99.90;;;;;;5031091;28;20026;-61
2022/11/27 02:31:13;;;;;;;16.10;3.08;;;10.80;99.90;;;;;;5019927;28;20033;-62
2022/11/27 02:33:44;;;;;;;20.75;3.13;;;10.90;99.90;;;;;;5031986;28;20030;-61
2022/11/27 02:36:15;;;;;;;15.35;2.67;;;10.90;99.90;;;;;;5032187;28;20484;-60
2022/11/27 02:38:46;;;;;;;20.13;3.10;;;10.90;99.90;;;;;;5030091;28;20036;-63
2022/11/27 02:41:20;;;;;;;15.38;3.13;;;10.90;99.90;;;;;;5032330;28;20025;-62
2022/11/27 02:43:49;;;;;;;23.60;3.13;;;10.90;99.90;;;;;;5031905;28;20027;-62
2022/11/27 02:46:17;;;;;;;15.27;3.10;;;10.90;99.90;;;;;;5031863;28;20053;-62
2022/11/27 02:48:49;;;;;;;18.50;3.33;;;10.90;99.90;;;;;;5031707;28;20061;-61
2022/11/27 02:51:22;;;;;;;15.93;3.22;;;10.90;99.90;;;;;;5022203;28;20021;-58
2022/11/27 02:53:53;;;;;;;14.15;3.00;;;10.90;99.90;;;;;;5031670;28;20369;-61
2022/11/27 02:56:21;;;;;;;23.60;3.75;;;10.90;99.90;;;;;;5031936;28;20029;-60
2022/11/27 02:58:49;;;;;;;16.67;2.93;;;10.90;99.90;;;;;;5031642;28;20481;-63
2022/11/27 03:01:19;;;;;;;10.15;2.63;;;10.90;99.90;;;;;;5031636;28;20017;-60
2022/11/27 03:03:50;;;;;;;15.23;2.90;;;10.90;99.90;;;;;;5031474;28;20057;-61
2022/11/27 03:06:38;;;;;;;14.93;3.22;;;10.90;99.90;;;;;;5031136;28;20037;-60
2022/11/27 03:09:16;;;;;;;17.67;2.97;;;11.00;99.90;;;;;;5031556;28;20036;-64
2022/11/27 03:11:42;;;;;;;14.10;3.03;;;11.00;99.90;;;;;;5031196;28;20074;-64
2022/11/27 03:14:10;;;;;;;13.38;2.97;;;10.90;99.90;;;;;;5031172;28;20038;-62
2022/11/27 03:16:44;;;;;;;27.50;5.15;;;11.00;99.90;;;;;;5031121;28;20028;-62
2022/11/27 03:19:40;;;;;;;18.15;3.35;;;11.00;99.90;;;;;;5031347;28;20021;-64
2022/11/27 03:22:06;;;;;;;19.05;2.85;;;11.00;99.90;;;;;;5019183;28;20029;-62
2022/11/27 03:24:34;;;;;;;12.20;2.90;;;11.00;99.90;;;;;;5031408;28;20071;-61
2022/11/27 03:27:01;;;;;;;12.18;2.47;;;11.00;99.90;;;;;;5031110;28;20040;-63
2022/11/27 03:29:36;;;;;;;12.13;2.50;;;11.10;99.90;;;;;;5031513;28;20025;-62
2022/11/27 03:32:03;;;;;;;13.68;2.53;;;11.10;99.90;;;;;;5031186;28;20029;-61
2022/11/27 03:34:28;;;;;;;13.52;2.95;;;11.10;99.90;;;;;;5031218;28;20065;-61
2022/11/27 03:36:55;;;;;;;19.42;2.55;;;11.10;99.90;;;;;;5030959;28;20519;-63
2022/11/27 03:39:21;;;;;;;17.33;2.78;;;11.00;99.90;;;;;;5031169;28;20498;-63
2022/11/27 03:42:05;;;;;;;7.00;2.13;;;11.10;99.90;;;;;;5030683;28;20029;-63
2022/11/27 03:44:53;;;;;;;14.15;2.88;;;11.10;99.90;;;;;;5030789;28;20142;-64
2022/11/27 03:47:25;;;;;;;11.40;3.17;;;11.10;99.90;;;;;;5030177;28;20511;-64
2022/11/27 03:50:02;;;;;;;10.90;2.40;;;11.10;99.90;;;;;;5030722;28;20022;-64
2022/11/27 03:52:37;;;;;;;14.25;2.67;;;11.10;99.90;;;;;;5030388;28;20022;-64
2022/11/27 03:55:27;;;;;;;18.92;2.45;;;11.10;99.90;;;;;;5030368;28;20025;-63
2022/11/27 03:58:08;;;;;;;15.68;3.05;;;11.20;99.90;;;;;;5019672;28;20029;-63
2022/11/27 04:00:39;;;;;;;15.65;2.50;;;11.20;99.90;;;;;;5030418;28;20025;-62
2022/11/27 04:03:09;;;;;;;12.35;2.15;;;11.20;99.90;;;;;;5030458;28;20056;-62
2022/11/27 04:05:35;;;;;;;13.65;2.70;;;11.20;99.90;;;;;;5029425;28;20022;-64
2022/11/27 04:08:00;;;;;;;14.75;2.42;;;11.20;99.90;;;;;;5030524;28;20028;-63
2022/11/27 04:10:26;;;;;;;16.13;2.75;;;11.20;99.90;;;;;;5030040;28;20475;-62
2022/11/27 04:12:51;;;;;;;16.13;2.63;;;11.30;99.90;;;;;;5030451;28;20048;-62
2022/11/27 04:15:17;;;;;;;12.10;2.20;;;11.30;99.90;;;;;;5030193;28;20521;-63
2022/11/27 04:17:43;;;;;;;17.20;2.20;;;11.30;99.90;;;;;;5030060;28;20083;-62
2022/11/27 04:20:12;;;;;;;14.20;2.35;;;11.30;99.90;;;;;;5030275;28;20034;-61
2022/11/27 04:22:37;;;;;;;19.25;2.97;;;11.30;99.90;;;;;;5030367;28;20504;-62
2022/11/27 04:25:03;;;;;;;12.45;2.75;;;11.30;99.90;;;;;;5030060;28;20029;-62
2022/11/27 04:27:29;;;;;;;9.88;2.30;;;11.30;99.90;;;;;;5030156;28;20033;-61
2022/11/27 04:29:54;;;;;;;11.30;2.78;;;11.30;99.90;;;;;;5030259;28;20116;-62
2022/11/27 04:32:20;;;;;;;7.93;2.35;;;11.30;99.90;;;;;;5029567;28;20037;-61
2022/11/27 04:34:46;;;;;;;7.93;2.00;;;11.30;99.90;;;;;;5030313;28;20124;-61
2022/11/27 04:37:11;;;;;;;14.57;2.30;;;11.40;99.90;;;;;;5030218;28;20464;-61
2022/11/27 04:39:37;;;;;;;11.70;2.53;;;11.40;99.90;;;;;;5030321;28;20025;-60
2022/11/27 04:42:02;;;;;;;15.35;2.30;;;11.40;99.90;;;;;;5030132;28;20452;-62
2022/11/27 04:44:28;;;;;;;6.07;2.33;;;11.40;99.90;;;;;;5028807;28;20033;-62
2022/11/27 04:46:54;;;;;;;11.77;2.20;;;11.40;99.90;;;;;;5029797;28;20030;-62
2022/11/27 04:49:19;;;;;;;16.13;2.85;;;11.40;99.90;;;;;;5029437;28;20337;-61
2022/11/27 04:51:45;;;;;;;12.93;2.53;;;11.50;99.90;;;;;;5029816;28;20040;-60
2022/11/27 04:54:11;;;;;;;12.27;2.85;;;11.50;99.90;;;;;;5029669;28;20033;-61
2022/11/27 04:56:37;;;;;;;15.35;3.15;;;11.50;99.90;;;;;;5030007;28;20021;-60
2022/11/27 04:59:03;;;;;;;13.68;3.17;;;11.50;99.90;;;;;;5029708;28;20029;-62
2022/11/27 05:01:29;;;;;;;16.65;2.85;;;11.50;99.90;;;;;;5030299;28;20080;-62
2022/11/27 05:03:54;;;;;;;10.98;3.20;;;11.50;99.90;;;;;;5029720;28;20053;-61
2022/11/27 05:06:21;;;;;;;11.27;2.67;;;11.50;99.90;;;;;;5022175;28;20375;-62
2022/11/27 05:08:47;;;;;;;11.35;2.67;;;11.60;99.90;;;;;;5029970;28;20029;-60
2022/11/27 05:11:14;;;;;;;10.93;3.42;;;11.60;99.90;;;;;;5027908;28;20026;-60
2022/11/27 05:13:40;;;;;;;16.38;3.33;;;11.60;99.90;;;;;;5029947;28;20060;-61
2022/11/27 05:16:06;;;;;;;12.07;2.78;;;11.60;99.90;;;;;;5029684;28;20033;-59
2022/11/27 05:18:32;;;;;;;11.48;2.10;;;11.70;99.90;;;;;;5029606;28;20022;-61
2022/11/27 05:20:59;;;;;;;8.20;2.13;;;11.70;99.90;;;;;;5029729;28;20037;-61
2022/11/27 05:23:26;;;;;;;14.48;2.53;;;11.70;99.90;;;;;;5031037;28;20014;-62
2022/11/27 05:25:52;;;;;;;11.10;2.20;;;11.70;99.90;;;;;;5033332;28;20053;-61
2022/11/27 05:28:18;;;;;;;15.20;2.65;;;11.70;99.90;;;;;;5032532;28;20025;-61
2022/11/27 05:30:45;;;;;;;10.48;2.35;;;11.80;99.90;;;;;;5031761;28;20611;-61
2022/11/27 05:33:11;;;;;;;16.13;2.13;;;11.80;99.90;;;;;;5031846;28;20029;-62
2022/11/27 05:35:36;;;;;;;10.52;2.17;;;11.80;99.90;;;;;;5032863;28;20116;-63
2022/11/27 05:38:02;;;;;;;9.65;2.30;;;11.80;99.90;;;;;;5033109;28;20388;-61
2022/11/27 05:40:28;;;;;;;14.95;2.28;;;11.80;99.90;;;;;;5033479;28;20029;-62
2022/11/27 05:42:53;;;;;;;10.48;2.10;;;11.80;99.90;;;;;;5033180;28;20401;-61
2022/11/27 05:45:19;;;;;;;7.90;1.92;;;11.80;99.90;;;;;;5032983;28;20041;-61
2022/11/27 05:47:45;;;;;;;13.10;1.77;;;11.80;99.90;;;;;;5032799;28;20025;-61
2022/11/27 05:50:10;;;;;;;8.35;1.88;;;11.80;99.90;;;;;;5032939;28;20028;-62
2022/11/27 05:52:36;;;;;;;7.90;2.10;;;11.90;99.90;;;;;;5033060;28;20021;-60
2022/11/27 05:55:02;;;;;;;8.63;1.50;;;11.90;99.90;;;;;;5032921;28;20468;-60
2022/11/27 05:57:29;;;;;;;4.72;1.40;;;11.90;99.90;;;;;;5032598;28;20047;-60
2022/11/27 05:59:56;;;;;;;6.40;1.50;;;11.90;99.90;;;;;;5032926;28;20038;-61
2022/11/27 06:02:22;;;;;;;11.70;1.55;;;11.90;99.90;;;;;;5032136;28;20014;-60
2022/11/27 06:04:48;;;;;;;5.97;1.45;;;12.00;99.90;;;;;;5032423;28;20060;-60
2022/11/27 06:07:13;;;;;;;7.80;1.60;;;11.90;99.90;;;;;;5032423;28;20026;-60
2022/11/27 06:09:39;;;;;;;10.25;1.70;;;12.00;99.90;;;;;;5032698;28;20074;-60
2022/11/27 06:12:05;;;;;;;10.45;1.90;;;12.00;99.90;;;;;;5032582;28;20151;-60
2022/11/27 06:14:33;;;;;;;13.32;1.75;;;12.00;99.90;;;;;;5032363;28;20124;-59
2022/11/27 06:17:02;;;;;;;10.73;2.15;;;12.00;99.90;;;;;;5032513;28;20091;-60
2022/11/27 06:19:28;;;;;;;10.32;2.33;;;12.00;99.90;;;;;;5032191;28;20025;-60
2022/11/27 06:21:54;;;;;;;11.20;1.92;;;12.00;99.90;;;;;;5032570;28;20080;-59
2022/11/27 06:24:20;;;;;;;10.63;1.80;;;12.10;99.90;;;;;;5032334;28;20480;-60
2022/11/27 06:26:45;;;;;;;9.60;1.52;;;12.10;99.90;;;;;;5031232;28;20029;-60
2022/11/27 06:29:11;;;;;;;8.20;1.60;;;12.10;99.90;;;;;;5031597;28;20092;-59
2022/11/27 06:31:37;;;;;;;3.83;1.50;;;12.10;99.90;;;;;;5031438;28;20064;-60
2022/11/27 06:34:04;;;;;;;4.10;1.42;;;12.10;99.90;;;;;;5031751;28;20030;-59
2022/11/27 06:36:32;;;;;;;6.15;1.50;;;12.10;99.90;;;;;;5032006;28;20083;-59
2022/11/27 06:38:58;;;;;;;9.10;1.45;;;12.10;99.90;;;;;;5031816;28;20504;-59
2022/11/27 06:41:25;;;;;;;6.70;1.50;;;12.10;99.90;;;;;;5032182;28;20018;-60
2022/11/27 06:43:52;;;;;;;9.50;1.88;;;12.10;99.90;;;;;;5031877;28;20048;-60
2022/11/27 06:46:19;;;;;;;8.05;1.75;;;12.10;99.90;;;;;;5031428;28;20127;-59
2022/11/27 06:48:47;;;;;;;7.70;1.40;;;12.10;99.90;;;;;;5031458;28;20026;-59
2022/11/27 06:51:15;;;;;;;4.47;1.20;;;12.10;99.90;;;;;;5031812;28;20029;-59
2022/11/27 06:53:41;;;;;;;5.35;1.20;;;12.20;99.90;;;;;;5031787;28;20068;-60
2022/11/27 06:56:09;;;;;;;5.57;1.08;;;12.20;99.90;;;;;;5031757;28;20045;-59
2022/11/27 06:58:36;;;;;;;3.88;0.90;;;12.10;99.90;;;;;;5031670;28;20045;-59
2022/11/27 07:01:08;;;;;;;3.97;0.90;;;12.10;99.90;;;;;;5031136;28;20052;-60
2022/11/27 07:03:34;;;;;;;7.35;1.00;;;12.10;99.90;;;;;;5031392;28;20053;-59
2022/11/27 07:06:01;;;;;;;4.00;0.80;;;12.20;99.90;;;;;;5031562;28;20045;-60
2022/11/27 07:08:27;;;;;;;2.45;0.70;;;12.20;99.90;;;;;;5031523;28;20021;-59
2022/11/27 07:10:52;;;;;;;6.72;0.98;;;12.20;99.90;;;;;;5031308;28;20167;-58
2022/11/27 07:13:18;;;;;;;3.78;0.80;;;12.20;99.90;;;;;;5031316;28;20017;-59
2022/11/27 07:15:44;;;;;;;5.38;1.13;;;12.20;99.90;;;;;;5031208;28;20420;-59
2022/11/27 07:18:10;;;;;;;8.48;1.20;;;12.20;99.90;;;;;;5031658;28;20392;-59
2022/11/27 07:20:36;;;;;;;4.60;1.33;;;12.20;99.90;;;;;;5031341;28;20465;-59
2022/11/27 07:23:01;;;;;;;4.78;0.93;;;12.20;99.90;;;;;;5031195;28;20104;-58
2022/11/27 07:25:27;;;;;;;4.63;1.40;;;12.20;99.90;;;;;;5030581;28;20020;-58
2022/11/27 07:27:54;;;;;;;6.40;1.48;;;12.20;99.90;;;;;;5031023;28;20029;-59
2022/11/27 07:30:20;;;;;;;8.65;1.40;;;12.20;99.90;;;;;;5030753;28;20109;-59
2022/11/27 07:32:45;;;;;;;3.22;1.00;;;12.30;99.90;;;;;;5030517;28;20455;-61
2022/11/27 07:35:11;;;;;;;4.38;1.15;;;12.30;99.90;;;;;;5030304;28;20048;-61
2022/11/27 07:37:37;;;;;;;7.97;1.77;;;12.30;99.90;;;;;;5030733;28;20021;-61
2022/11/27 07:40:03;;;;;;;8.63;1.38;;;12.20;99.90;;;;;;5030187;28;20379;-60
2022/11/27 07:42:29;;;;;;;8.52;1.30;;;12.30;99.90;;;;;;5030859;28;20053;-60
2022/11/27 07:44:55;;;;;;;9.20;1.40;;;12.30;99.90;;;;;;5030425;28;20083;-62
2022/11/27 07:47:21;;;;;;;8.00;1.55;;;12.30;99.90;;;;;;5030384;28;20022;-60
2022/11/27 07:49:46;;;;;;;7.20;1.63;;;12.30;99.90;;;;;;5030840;28;20033;-60
2022/11/27 07:52:12;;;;;;;10.68;1.42;;;12.30;99.90;;;;;;5030613;28;20063;-60
2022/11/27 07:54:38;;;;;;;10.02;1.60;;;12.20;99.90;;;;;;5030507;28;20049;-61
2022/11/27 07:57:04;;;;;;;9.48;1.50;;;12.30;99.90;;;;;;5030476;28;20018;-60
2022/11/27 07:59:29;;;;;;;10.50;1.75;;;12.30;99.90;;;;;;5030748;28;20549;-59
2022/11/27 08:01:55;;;;;;;10.02;1.45;;;12.30;99.90;;;;;;5030781;28;20034;-59
2022/11/27 08:04:20;;;;;;;11.73;1.48;;;12.30;99.90;;;;;;5030175;28;20076;-60
2022/11/27 08:06:48;;;;;;;10.77;1.52;;;12.30;99.90;;;;;;5030079;28;20132;-59
2022/11/27 08:09:14;;;;;;;8.70;1.33;;;12.30;99.90;;;;;;5030116;28;20061;-59
2022/11/27 08:11:40;;;;;;;9.07;1.30;;;12.40;99.90;;;;;;5030283;28;20519;-60
2022/11/27 08:14:07;;;;;;;6.05;1.75;;;12.30;99.90;;;;;;5030098;28;20048;-60
2022/11/27 08:16:34;;;;;;;9.60;1.35;;;12.30;99.90;;;;;;5029966;28;20388;-60
2022/11/27 08:19:00;;;;;;;9.40;1.85;;;12.30;99.90;;;;;;5029707;28;20506;-60
2022/11/27 08:21:26;;;;;;;9.85;1.52;;;12.30;99.90;;;;;;5029615;28;20420;-59
2022/11/27 08:23:52;;;;;;;11.95;2.20;;;12.30;99.90;;;;;;5030066;28;20040;-60
2022/11/27 08:26:19;;;;;;;11.95;2.60;;;12.30;99.90;;;;;;5029666;28;20021;-60
2022/11/27 08:28:45;;;;;;;10.68;2.42;;;12.30;99.90;;;;;;5030695;28;20025;-59
2022/11/27 08:31:13;;;;;;;12.68;2.10;;;12.40;99.90;;;;;;5030250;28;20033;-58
2022/11/27 08:33:38;;;;;;;13.20;2.20;;;12.40;99.90;;;;;;5029959;28;20074;-59
2022/11/27 08:36:04;;;;;;;14.57;2.00;;;12.30;99.90;;;;;;5030054;28;20029;-61
2022/11/27 08:38:30;;;;;;;6.20;1.58;;;12.40;99.90;;;;;;5029575;28;20034;-61
2022/11/27 08:41:01;;;;;;;11.98;1.90;;;12.30;99.90;;;;;;5029686;28;20029;-59
2022/11/27 08:43:27;;;;;;;10.88;2.00;;;12.40;99.90;;;;;;5029714;28;20047;-58
2022/11/27 08:45:53;;;;;;;11.40;1.98;;;12.40;99.90;;;;;;5029872;28;20033;-59
2022/11/27 08:48:20;;;;;;;12.10;1.63;;;12.40;99.90;;;;;;5029779;28;20156;-61
2022/11/27 08:50:46;;;;;;;9.38;1.65;;;12.40;99.90;;;;;;5029444;28;20033;-58
2022/11/27 08:53:12;;;;;;;9.13;1.40;;;12.40;99.90;;;;;;5029216;28;20018;-59
2022/11/27 08:55:37;;;;;;;10.15;1.63;;;12.50;99.90;;;;;;5029158;28;20037;-60
2022/11/27 08:58:03;;;;;;;10.90;1.52;;;12.50;99.90;;;;;;5032212;28;20021;-60
2022/11/27 09:00:30;;;;;;;5.32;1.23;;;12.50;99.90;;;;;;5033281;28;20032;-59
2022/11/27 09:02:58;;;;;;;9.32;1.65;;;12.50;99.90;;;;;;5030935;28;20049;-59
2022/11/27 09:05:24;;;;;;;7.82;1.60;;;12.50;99.90;;;;;;5033202;28;20030;-59
2022/11/27 09:07:50;;;;;;;7.22;1.25;;;12.50;99.90;;;;;;5033369;28;20025;-58
2022/11/27 09:10:16;;;;;;;6.55;1.15;;;12.60;99.90;;;;;;5030529;28;20076;-60
2022/11/27 09:12:43;;;;;;;5.03;1.45;;;12.60;99.90;;;;;;5033018;28;20057;-60
2022/11/27 09:15:10;;;;;;;6.38;1.27;;;12.60;99.90;;;;;;5033352;28;20091;-59
2022/11/27 09:17:36;;;;;;;5.90;1.70;;;12.60;99.90;;;;;;5030638;28;20018;-57
2022/11/27 09:20:02;;;;;;;13.35;2.10;;;12.60;99.90;;;;;;5032444;28;20435;-59
2022/11/27 09:22:28;;;;;;;7.80;1.50;;;12.70;99.90;;;;;;5031722;28;20044;-60
2022/11/27 09:24:53;;;;;;;8.70;1.30;;;12.70;99.90;;;;;;5031726;28;20068;-60
2022/11/27 09:27:19;;;;;;;8.23;1.48;;;12.70;99.90;;;;;;5032214;28;20253;-61
2022/11/27 09:29:45;;;;;;;7.97;1.55;;;12.70;99.90;;;;;;5032030;28;20385;-59
2022/11/27 09:32:10;;;;;;;7.43;1.35;;;12.80;99.90;;;;;;5030815;28;20032;-59
2022/11/27 09:34:36;;;;;;;9.55;2.17;;;12.80;99.90;;;;;;5031730;28;20047;-59
2022/11/27 09:37:03;;;;;;;11.20;2.58;;;12.80;99.90;;;;;;5031043;28;20025;-59
2022/11/27 09:39:32;;;;;;;11.65;2.67;;;12.70;99.90;;;;;;5032709;28;20030;-60
2022/11/27 09:42:00;;;;;;;11.90;2.00;;;12.70;99.90;;;;;;5032569;28;20041;-61
2022/11/27 09:44:56;;;;;;;4.38;1.35;;;12.70;99.90;;;;;;5032918;28;20630;-61
2022/11/27 09:47:52;;;;;;;7.80;1.80;;;12.70;99.90;;;;;;5032642;28;20017;-59
2022/11/27 09:50:38;;;;;;;8.40;1.48;;;12.70;99.90;;;;;;5028068;28;20034;-61
2022/11/27 09:53:22;;;;;;;6.57;1.20;;;12.70;99.90;;;;;;5032824;28;20025;-59
2022/11/27 09:55:53;;;;;;;8.73;1.38;;;12.80;99.90;;;;;;5032114;28;20059;-59
2022/11/27 09:58:35;;;;;;;14.82;1.90;;;12.70;99.90;;;;;;5032206;28;20018;-60
2022/11/27 10:01:20;;;;;;;11.80;1.85;;;12.80;99.90;;;;;;5032009;28;20484;-60
2022/11/27 10:03:46;;;;;;;9.15;2.20;;;12.80;99.90;;;;;;5031385;28;20041;-60
2022/11/27 10:06:25;;;;;;;5.07;1.65;;;12.80;99.90;;;;;;5031190;28;20049;-59
2022/11/27 10:09:02;;;;;;;10.38;2.70;;;12.80;99.90;;;;;;5030808;28;20159;-59
2022/11/27 10:12:03;;;;;;;6.47;1.80;;;12.90;99.90;;;;;;5030238;28;20021;-60
2022/11/27 10:14:51;;;;;;;8.32;1.70;;;12.90;99.90;;;;;;5027148;28;20085;-59
2022/11/27 10:17:22;;;;;;;9.23;1.85;;;13.00;99.90;;;;;;5031991;28;20026;-59
2022/11/27 10:20:46;;;;;;;11.80;1.98;;;13.10;99.90;;;;;;5031830;28;20021;-58
2022/11/27 10:23:31;;;;;;;8.77;1.52;;;13.10;99.90;;;;;;5017994;28;20079;-59
2022/11/27 10:26:11;;;;;;;6.85;1.80;;;13.10;99.90;;;;;;5030811;28;20033;-60
2022/11/27 10:29:18;;;;;;;9.00;1.50;;;13.10;99.90;;;;;;5030671;28;20025;-59
2022/11/27 10:31:52;;;;;;;8.25;1.63;;;13.20;99.90;;;;;;5026263;28;20059;-59
2022/11/27 10:34:26;;;;;;;11.10;1.60;;;13.20;99.90;;;;;;5031403;28;20052;-61
2022/11/27 10:36:54;;;;;;;7.50;1.50;;;13.20;99.90;;;;;;5031000;28;20017;-59
2022/11/27 10:39:34;;;;;;;11.45;2.30;;;13.30;99.90;;;;;;5031620;28;20028;-59
2022/11/27 10:42:09;;;;;;;7.18;1.55;;;13.30;99.90;;;;;;5031394;28;20029;-60
2022/11/27 10:44:39;;;;;;;6.13;1.40;;;13.40;99.90;;;;;;5031967;28;20404;-59
2022/11/27 10:47:09;;;;;;;8.85;1.67;;;13.40;99.90;;;;;;5031356;28;20118;-60
2022/11/27 10:49:38;;;;;;;7.05;1.40;;;13.50;99.90;;;;;;5029048;28;20026;-59
2022/11/27 10:52:04;;;;;;;9.15;1.42;;;13.50;99.90;;;;;;5031097;28;20039;-58
2022/11/27 10:54:34;;;;;;;10.07;1.55;;;13.50;99.90;;;;;;5030831;28;20459;-59
2022/11/27 10:57:15;;;;;;;6.78;1.40;;;13.50;99.90;;;;;;5031163;28;20480;-59
2022/11/27 11:00:00;;;;;;;9.27;1.75;;;13.60;99.90;;;;;;5030182;28;20041;-59
2022/11/27 11:02:30;;;;;;;11.82;2.38;;;13.70;99.90;;;;;;5031899;28;20108;-59
2022/11/27 11:04:56;;;;;;;11.25;1.85;;;13.70;99.90;;;;;;5032440;28;20510;-59
2022/11/27 11:07:27;;;;;;;9.35;1.75;;;13.70;99.90;;;;;;5029538;28;20030;-59
2022/11/27 11:09:53;;;;;;;13.23;1.92;;;13.70;99.90;;;;;;5036204;28;20522;-59
2022/11/27 11:12:21;;;;;;;14.55;2.25;;;13.80;99.90;;;;;;5040977;28;20111;-58
2022/11/27 11:14:55;;;;;;;14.32;1.90;;;13.80;99.90;;;;;;5033488;28;20458;-58
2022/11/27 11:17:25;;;;;;;9.60;1.42;;;13.90;99.90;;;;;;5032737;28;20075;-56
2022/11/27 11:19:51;;;;;;;13.75;3.05;;;14.10;99.90;;;;;;5030870;28;20072;-59
2022/11/27 11:22:17;;;;;;;8.90;1.80;;;14.30;99.90;;;;;;5030005;28;20029;-59
2022/11/27 11:24:51;;;;;;;11.82;1.80;;;14.40;99.90;;;;;;5029192;28;20057;-58
2022/11/27 11:27:29;;;;;;;13.63;2.00;;;14.50;99.90;;;;;;5022493;28;20036;-59
2022/11/27 11:30:00;;;;;;;12.27;1.65;;;14.60;99.90;;;;;;5026268;28;20758;-58
2022/11/27 11:32:32;;;;;;;15.73;1.92;;;14.60;99.90;;;;;;5027810;28;20021;-59
2022/11/27 11:35:28;;;;;;;11.77;2.47;;;14.60;99.90;;;;;;5028248;28;20038;-59
2022/11/27 11:37:55;;;;;;;14.40;2.00;;;14.60;99.90;;;;;;5025517;28;20029;-59
2022/11/27 11:40:25;;;;;;;13.68;2.28;;;14.60;99.90;;;;;;5028959;28;20036;-60
2022/11/27 11:42:56;;;;;;;13.80;1.83;;;14.50;99.90;;;;;;5030560;28;20124;-60
2022/11/27 11:45:22;;;;;;;7.53;1.48;;;14.50;99.90;;;;;;5026467;28;20018;-58
2022/11/27 11:47:53;;;;;;;12.65;2.00;;;14.50;99.90;;;;;;5024923;28;20037;-57
2022/11/27 11:50:41;;;;;;;13.57;2.17;;;14.50;99.90;;;;;;5026242;28;20025;-61
2022/11/27 11:53:13;;;;;;;12.18;2.08;;;14.50;99.90;;;;;;5028879;28;20041;-59
2022/11/27 11:55:43;;;;;;;8.88;1.38;;;14.50;99.90;;;;;;5027291;28;20021;-60
2022/11/27 11:58:27;;;;;;;10.63;1.55;;;14.40;99.90;;;;;;5028616;28;20037;-60
2022/11/27 12:01:06;;;;;;;14.80;2.05;;;14.30;99.90;;;;;;5028797;28;20037;-58
2022/11/27 12:03:55;;;;;;;11.65;1.88;;;14.30;99.90;;;;;;5028629;28;20465;-58
2022/11/27 12:06:36;;;;;;;8.95;1.83;;;14.20;99.90;;;;;;5021186;28;20500;-61
2022/11/27 12:09:09;;;;;;;11.93;1.90;;;14.20;99.90;;;;;;5023558;28;20524;-58
2022/11/27 12:11:56;;;;;;;12.50;1.80;;;14.20;99.90;;;;;;5027274;28;20559;-61
2022/11/27 12:14:42;;;;;;;12.32;1.90;;;14.10;99.90;;;;;;5027502;28;20087;-58
2022/11/27 12:17:42;;;;;;;13.48;2.13;;;14.20;99.90;;;;;;5027891;28;20025;-60
2022/11/27 12:20:25;;;;;;;12.98;2.72;;;14.20;99.90;;;;;;5027106;28;20146;-58
2022/11/27 12:23:28;;;;;;;14.27;2.97;;;14.30;99.90;;;;;;5027545;28;20033;-59
2022/11/27 12:26:27;;;;;;;11.13;2.20;;;14.30;99.90;;;;;;5028187;28;20022;-62
2022/11/27 12:28:58;;;;;;;12.70;1.88;;;14.20;99.90;;;;;;5024609;28;20076;-59
2022/11/27 12:31:48;;;;;;;16.85;1.90;;;14.20;99.90;;;;;;5027933;28;20025;-59
2022/11/27 12:34:36;;;;;;;14.80;2.50;;;14.20;99.90;;;;;;5032743;28;20048;-59
2022/11/27 12:37:32;;;;;;;11.38;1.67;;;14.20;99.90;;;;;;5032633;28;20021;-60
2022/11/27 12:40:07;;;;;;;16.00;2.13;;;14.20;99.90;;;;;;5030788;28;20037;-59
2022/11/27 12:42:55;;;;;;;21.40;3.22;;;14.20;99.90;;;;;;5031062;28;20052;-59
2022/11/27 12:45:27;;;;;;;15.57;2.30;;;14.20;99.90;;;;;;5031564;28;20104;-59
2022/11/27 12:47:53;;;;;;;13.27;3.10;;;14.20;99.90;;;;;;5031169;28;20259;-59
2022/11/27 12:50:39;;;;;;;12.55;2.05;;;14.20;99.90;;;;;;5033208;28;20067;-60
2022/11/27 12:53:13;;;;;;;17.38;2.10;;;14.20;99.90;;;;;;5033406;28;20033;-60
2022/11/27 12:55:43;;;;;;;9.45;2.33;;;14.10;99.90;;;;;;5033662;28;20036;-59
2022/11/27 12:58:19;;;;;;;14.38;2.08;;;14.10;99.90;;;;;;5033706;28;20146;-59